sensor_id;sensor_type;location;lat;lon;timestamp;pressure;altitude;pressure_sealevel;temperature;humidity
41254;BME280;26987;59.928;30.306;2023-04-27T00:00:58;100270.41;;;10.97;57.18
41254;BME280;26987;59.928;30.306;2023-04-27T00:03:27;100296.38;;;10.97;57.32
41254;BME280;26987;59.928;30.306;2023-04-27T00:05:55;100280.28;;;10.97;57.28
41254;BME280;26987;59.928;30.306;2023-04-27T00:08:22;100260.00;;;10.82;57.77
41254;BME280;26987;59.928;30.306;2023-04-27T00:10:50;100274.19;;;10.90;57.85
41254;BME280;26987;59.928;30.306;2023-04-27T00:13:18;100303.91;;;10.88;58.08
41254;BME280;26987;59.928;30.306;2023-04-27T00:15:46;100277.50;;;10.85;58.34
41254;BME280;26987;59.928;30.306;2023-04-27T00:18:15;100256.78;;;10.74;58.92
41254;BME280;26987;59.928;30.306;2023-04-27T00:20:43;100277.38;;;10.80;58.83
41254;BME280;26987;59.928;30.306;2023-04-27T00:23:11;100288.75;;;10.75;59.41
41254;BME280;26987;59.928;30.306;2023-04-27T00:25:39;100281.50;;;10.76;59.67
41254;BME280;26987;59.928;30.306;2023-04-27T00:28:07;100280.53;;;10.70;59.88
41254;BME280;26987;59.928;30.306;2023-04-27T00:30:35;100280.53;;;10.70;59.96
41254;BME280;26987;59.928;30.306;2023-04-27T00:33:03;100292.53;;;10.67;60.22
41254;BME280;26987;59.928;30.306;2023-04-27T00:35:32;100283.06;;;10.65;60.13
41254;BME280;26987;59.928;30.306;2023-04-27T00:38:00;100283.84;;;10.65;60.40
41254;BME280;26987;59.928;30.306;2023-04-27T00:40:28;100276.00;;;10.70;60.28
41254;BME280;26987;59.928;30.306;2023-04-27T00:42:56;100280.94;;;10.74;59.96
41254;BME280;26987;59.928;30.306;2023-04-27T00:45:25;100283.44;;;10.68;60.47
41254;BME280;26987;59.928;30.306;2023-04-27T00:47:53;100282.22;;;10.64;60.09
41254;BME280;26987;59.928;30.306;2023-04-27T00:50:26;100278.50;;;10.65;60.51
41254;BME280;26987;59.928;30.306;2023-04-27T00:52:56;100269.88;;;10.63;60.38
41254;BME280;26987;59.928;30.306;2023-04-27T00:55:24;100275.00;;;10.65;60.73
41254;BME280;26987;59.928;30.306;2023-04-27T00:57:52;100273.13;;;10.65;60.59
41254;BME280;26987;59.928;30.306;2023-04-27T01:00:20;100280.97;;;10.67;60.51
41254;BME280;26987;59.928;30.306;2023-04-27T01:02:48;100276.88;;;10.64;60.42
41254;BME280;26987;59.928;30.306;2023-04-27T01:05:17;100278.94;;;10.62;60.81
41254;BME280;26987;59.928;30.306;2023-04-27T01:07:46;100276.69;;;10.59;60.89
41254;BME280;26987;59.928;30.306;2023-04-27T01:10:15;100279.75;;;10.63;60.98
41254;BME280;26987;59.928;30.306;2023-04-27T01:12:43;100276.47;;;10.60;60.77
41254;BME280;26987;59.928;30.306;2023-04-27T01:15:11;100272.38;;;10.58;61.07
41254;BME280;26987;59.928;30.306;2023-04-27T01:17:39;100272.81;;;10.55;61.31
41254;BME280;26987;59.928;30.306;2023-04-27T01:20:09;100262.94;;;10.49;61.41
41254;BME280;26987;59.928;30.306;2023-04-27T01:22:37;100263.34;;;10.52;61.10
41254;BME280;26987;59.928;30.306;2023-04-27T01:25:07;100264.56;;;10.56;61.44
41254;BME280;26987;59.928;30.306;2023-04-27T01:27:35;100268.94;;;10.51;61.47
41254;BME280;26987;59.928;30.306;2023-04-27T01:30:04;100259.25;;;10.50;61.93
41254;BME280;26987;59.928;30.306;2023-04-27T01:32:32;100265.81;;;10.54;61.83
41254;BME280;26987;59.928;30.306;2023-04-27T01:35:00;100257.16;;;10.52;61.41
41254;BME280;26987;59.928;30.306;2023-04-27T01:37:28;100264.41;;;10.51;61.34
41254;BME280;26987;59.928;30.306;2023-04-27T01:39:56;100271.16;;;10.54;61.11
41254;BME280;26987;59.928;30.306;2023-04-27T01:42:25;100269.06;;;10.56;60.98
41254;BME280;26987;59.928;30.306;2023-04-27T01:44:53;100273.00;;;10.60;60.98
41254;BME280;26987;59.928;30.306;2023-04-27T01:47:21;100249.56;;;10.49;61.52
41254;BME280;26987;59.928;30.306;2023-04-27T01:49:49;100272.56;;;10.63;60.75
41254;BME280;26987;59.928;30.306;2023-04-27T01:52:18;100273.13;;;10.65;61.07
41254;BME280;26987;59.928;30.306;2023-04-27T01:54:46;100300.66;;;10.79;60.90
41254;BME280;26987;59.928;30.306;2023-04-27T01:57:14;100313.56;;;10.89;60.50
41254;BME280;26987;59.928;30.306;2023-04-27T01:59:44;100291.31;;;10.63;60.28
41254;BME280;26987;59.928;30.306;2023-04-27T02:02:12;100321.63;;;10.89;60.66
41254;BME280;26987;59.928;30.306;2023-04-27T02:04:40;100327.84;;;10.83;60.63
41254;BME280;26987;59.928;30.306;2023-04-27T02:07:08;100334.28;;;10.82;61.52
41254;BME280;26987;59.928;30.306;2023-04-27T02:09:36;100335.75;;;10.78;62.05
41254;BME280;26987;59.928;30.306;2023-04-27T02:12:04;100342.38;;;10.75;62.70
41254;BME280;26987;59.928;30.306;2023-04-27T02:14:32;100335.13;;;10.76;63.03
41254;BME280;26987;59.928;30.306;2023-04-27T02:17:01;100333.72;;;10.73;62.97
41254;BME280;26987;59.928;30.306;2023-04-27T02:19:29;100339.91;;;10.74;63.08
41254;BME280;26987;59.928;30.306;2023-04-27T02:21:57;100315.13;;;10.78;62.94
41254;BME280;26987;59.928;30.306;2023-04-27T02:24:25;100337.38;;;10.79;64.95
41254;BME280;26987;59.928;30.306;2023-04-27T02:26:52;100343.03;;;10.70;67.10
41254;BME280;26987;59.928;30.306;2023-04-27T02:29:20;100349.47;;;10.63;69.22
41254;BME280;26987;59.928;30.306;2023-04-27T02:31:48;100349.13;;;10.52;71.41
41254;BME280;26987;59.928;30.306;2023-04-27T02:34:17;100340.91;;;10.47;72.89
41254;BME280;26987;59.928;30.306;2023-04-27T02:36:45;100356.16;;;10.40;74.53
41254;BME280;26987;59.928;30.306;2023-04-27T02:39:14;100357.84;;;10.34;75.24
41254;BME280;26987;59.928;30.306;2023-04-27T02:41:42;100362.78;;;10.37;75.29
41254;BME280;26987;59.928;30.306;2023-04-27T02:44:09;100363.84;;;10.36;74.88
41254;BME280;26987;59.928;30.306;2023-04-27T02:46:37;100369.94;;;10.57;73.95
41254;BME280;26987;59.928;30.306;2023-04-27T02:49:05;100376.69;;;10.66;72.72
41254;BME280;26987;59.928;30.306;2023-04-27T02:51:34;100378.31;;;10.67;72.06
41254;BME280;26987;59.928;30.306;2023-04-27T02:54:02;100377.19;;;10.50;72.02
41254;BME280;26987;59.928;30.306;2023-04-27T02:56:30;100371.13;;;10.22;72.12
41254;BME280;26987;59.928;30.306;2023-04-27T02:58:58;100364.63;;;9.97;72.87
41254;BME280;26987;59.928;30.306;2023-04-27T03:01:26;100378.25;;;9.82;73.79
41254;BME280;26987;59.928;30.306;2023-04-27T03:03:54;100377.66;;;9.80;74.01
41254;BME280;26987;59.928;30.306;2023-04-27T03:06:22;100377.47;;;9.75;74.30
41254;BME280;26987;59.928;30.306;2023-04-27T03:08:51;100377.88;;;9.79;74.58
41254;BME280;26987;59.928;30.306;2023-04-27T03:11:19;100382.81;;;9.82;74.42
41254;BME280;26987;59.928;30.306;2023-04-27T03:13:46;100385.97;;;10.18;73.43
41254;BME280;26987;59.928;30.306;2023-04-27T03:16:14;100390.53;;;10.63;71.49
41254;BME280;26987;59.928;30.306;2023-04-27T03:18:42;100395.00;;;10.69;70.72
41254;BME280;26987;59.928;30.306;2023-04-27T03:21:11;100394.06;;;10.50;71.82
41254;BME280;26987;59.928;30.306;2023-04-27T03:23:39;100391.50;;;10.30;72.69
41254;BME280;26987;59.928;30.306;2023-04-27T03:26:10;100393.81;;;10.19;73.16
41254;BME280;26987;59.928;30.306;2023-04-27T03:28:38;100353.97;;;9.77;74.16
41254;BME280;26987;59.928;30.306;2023-04-27T03:31:07;100407.09;;;9.87;74.96
41254;BME280;26987;59.928;30.306;2023-04-27T03:33:36;100405.88;;;9.83;75.57
41254;BME280;26987;59.928;30.306;2023-04-27T03:36:04;100403.63;;;9.66;76.00
41254;BME280;26987;59.928;30.306;2023-04-27T03:38:33;100394.81;;;9.59;76.72
41254;BME280;26987;59.928;30.306;2023-04-27T03:41:01;100400.34;;;9.71;76.90
41254;BME280;26987;59.928;30.306;2023-04-27T03:43:31;100399.25;;;9.92;76.12
41254;BME280;26987;59.928;30.306;2023-04-27T03:45:59;100384.84;;;9.87;75.76
41254;BME280;26987;59.928;30.306;2023-04-27T03:48:27;100395.53;;;9.93;75.97
41254;BME280;26987;59.928;30.306;2023-04-27T03:50:55;100394.75;;;9.86;76.56
41254;BME280;26987;59.928;30.306;2023-04-27T03:53:23;100398.44;;;9.85;76.65
41254;BME280;26987;59.928;30.306;2023-04-27T03:55:51;100394.06;;;9.97;76.54
41254;BME280;26987;59.928;30.306;2023-04-27T03:58:19;100393.47;;;9.95;76.09
41254;BME280;26987;59.928;30.306;2023-04-27T04:01:06;100397.59;;;9.98;76.46
41254;BME280;26987;59.928;30.306;2023-04-27T04:03:35;100391.19;;;10.06;76.12
41254;BME280;26987;59.928;30.306;2023-04-27T04:06:06;100383.59;;;9.89;76.07
41254;BME280;26987;59.928;30.306;2023-04-27T04:08:34;100400.00;;;10.06;76.22
41254;BME280;26987;59.928;30.306;2023-04-27T04:11:03;100401.22;;;10.17;75.82
41254;BME280;26987;59.928;30.306;2023-04-27T04:13:30;100402.75;;;10.52;75.32
41254;BME280;26987;59.928;30.306;2023-04-27T04:16:03;100413.06;;;11.64;71.22
41254;BME280;26987;59.928;30.306;2023-04-27T04:18:34;100410.94;;;11.66;69.67
41254;BME280;26987;59.928;30.306;2023-04-27T04:21:04;100391.47;;;11.27;69.91
41254;BME280;26987;59.928;30.306;2023-04-27T04:23:31;100424.94;;;11.24;70.82
41254;BME280;26987;59.928;30.306;2023-04-27T04:25:59;100432.13;;;11.05;71.94
41254;BME280;26987;59.928;30.306;2023-04-27T04:28:32;100426.28;;;10.82;72.52
41254;BME280;26987;59.928;30.306;2023-04-27T04:31:00;100430.47;;;10.71;73.30
41254;BME280;26987;59.928;30.306;2023-04-27T04:33:31;100425.59;;;10.55;74.04
41254;BME280;26987;59.928;30.306;2023-04-27T04:36:02;100416.41;;;10.37;75.24
41254;BME280;26987;59.928;30.306;2023-04-27T04:38:30;100421.19;;;10.28;75.87
41254;BME280;26987;59.928;30.306;2023-04-27T04:40:59;100423.50;;;10.11;76.38
41254;BME280;26987;59.928;30.306;2023-04-27T04:43:30;100427.22;;;10.10;76.90
41254;BME280;26987;59.928;30.306;2023-04-27T04:45:58;100423.31;;;10.06;77.69
41254;BME280;26987;59.928;30.306;2023-04-27T04:48:27;100430.94;;;10.09;77.52
41254;BME280;26987;59.928;30.306;2023-04-27T04:50:57;100433.41;;;10.04;78.16
41254;BME280;26987;59.928;30.306;2023-04-27T04:53:24;100440.81;;;10.02;78.14
41254;BME280;26987;59.928;30.306;2023-04-27T04:55:55;100451.38;;;9.96;78.41
41254;BME280;26987;59.928;30.306;2023-04-27T04:58:22;100459.81;;;9.93;78.84
41254;BME280;26987;59.928;30.306;2023-04-27T05:00:51;100445.00;;;9.91;79.16
41254;BME280;26987;59.928;30.306;2023-04-27T05:03:19;100449.50;;;9.83;79.56
41254;BME280;26987;59.928;30.306;2023-04-27T05:05:47;100457.56;;;9.77;80.25
41254;BME280;26987;59.928;30.306;2023-04-27T05:08:16;100447.50;;;9.65;81.10
41254;BME280;26987;59.928;30.306;2023-04-27T05:10:48;100442.16;;;9.58;81.70
41254;BME280;26987;59.928;30.306;2023-04-27T05:13:16;100443.81;;;9.53;82.03
41254;BME280;26987;59.928;30.306;2023-04-27T05:15:44;100440.91;;;9.48;83.00
41254;BME280;26987;59.928;30.306;2023-04-27T05:18:12;100427.75;;;9.39;82.79
41254;BME280;26987;59.928;30.306;2023-04-27T05:20:39;100450.38;;;9.57;82.60
41254;BME280;26987;59.928;30.306;2023-04-27T05:23:07;100444.63;;;9.60;81.71
41254;BME280;26987;59.928;30.306;2023-04-27T05:25:37;100446.25;;;9.61;81.87
41254;BME280;26987;59.928;30.306;2023-04-27T05:28:08;100435.38;;;9.56;82.05
41254;BME280;26987;59.928;30.306;2023-04-27T05:30:36;100453.47;;;9.74;81.85
41254;BME280;26987;59.928;30.306;2023-04-27T05:33:04;100453.34;;;10.21;79.47
41254;BME280;26987;59.928;30.306;2023-04-27T05:35:32;100451.00;;;10.45;77.92
41254;BME280;26987;59.928;30.306;2023-04-27T05:38:00;100451.78;;;10.53;77.70
41254;BME280;26987;59.928;30.306;2023-04-27T05:40:28;100432.94;;;10.20;78.48
41254;BME280;26987;59.928;30.306;2023-04-27T05:42:58;100466.47;;;10.37;78.68
41254;BME280;26987;59.928;30.306;2023-04-27T05:45:28;100463.38;;;10.40;78.59
41254;BME280;26987;59.928;30.306;2023-04-27T05:47:56;100463.59;;;10.38;78.77
41254;BME280;26987;59.928;30.306;2023-04-27T05:50:24;100457.22;;;10.26;79.50
41254;BME280;26987;59.928;30.306;2023-04-27T05:52:52;100459.75;;;10.14;79.92
41254;BME280;26987;59.928;30.306;2023-04-27T05:55:20;100458.31;;;10.11;80.52
41254;BME280;26987;59.928;30.306;2023-04-27T05:57:48;100456.91;;;10.02;81.19
41254;BME280;26987;59.928;30.306;2023-04-27T06:00:18;100456.50;;;9.98;81.58
41254;BME280;26987;59.928;30.306;2023-04-27T06:02:47;100467.22;;;9.91;82.03
41254;BME280;26987;59.928;30.306;2023-04-27T06:05:15;100469.31;;;9.89;82.38
41254;BME280;26987;59.928;30.306;2023-04-27T06:07:43;100370.13;;;9.50;81.61
41254;BME280;26987;59.928;30.306;2023-04-27T06:10:11;100465.28;;;10.26;80.52
41254;BME280;26987;59.928;30.306;2023-04-27T06:12:39;100449.41;;;10.31;80.01
41254;BME280;26987;59.928;30.306;2023-04-27T06:15:08;100457.81;;;10.41;79.56
41254;BME280;26987;59.928;30.306;2023-04-27T06:17:38;100443.16;;;10.44;79.87
41254;BME280;26987;59.928;30.306;2023-04-27T06:20:06;100463.78;;;10.43;79.90
41254;BME280;26987;59.928;30.306;2023-04-27T06:22:35;100457.00;;;10.34;79.94
41254;BME280;26987;59.928;30.306;2023-04-27T06:25:04;100460.03;;;10.58;79.52
41254;BME280;26987;59.928;30.306;2023-04-27T06:27:32;100463.19;;;11.45;75.54
41254;BME280;26987;59.928;30.306;2023-04-27T06:30:00;100485.97;;;12.92;69.84
41254;BME280;26987;59.928;30.306;2023-04-27T06:32:28;100411.69;;;13.58;63.62
41254;BME280;26987;59.928;30.306;2023-04-27T06:34:57;100497.88;;;15.17;59.33
41254;BME280;26987;59.928;30.306;2023-04-27T06:37:25;100491.53;;;14.94;58.37
41254;BME280;26987;59.928;30.306;2023-04-27T06:39:53;100492.84;;;14.50;60.10
41254;BME280;26987;59.928;30.306;2023-04-27T06:42:24;100497.50;;;14.26;61.76
41254;BME280;26987;59.928;30.306;2023-04-27T06:44:53;100496.59;;;13.72;63.30
41254;BME280;26987;59.928;30.306;2023-04-27T06:47:21;100491.88;;;13.56;63.76
41254;BME280;26987;59.928;30.306;2023-04-27T06:49:49;100497.09;;;13.27;64.92
41254;BME280;26987;59.928;30.306;2023-04-27T06:52:19;100496.50;;;12.94;66.72
41254;BME280;26987;59.928;30.306;2023-04-27T06:54:47;100477.31;;;12.59;67.59
41254;BME280;26987;59.928;30.306;2023-04-27T06:57:15;100496.97;;;12.41;68.72
41254;BME280;26987;59.928;30.306;2023-04-27T06:59:42;100499.69;;;12.22;70.36
41254;BME280;26987;59.928;30.306;2023-04-27T07:02:10;100486.72;;;11.94;71.15
41254;BME280;26987;59.928;30.306;2023-04-27T07:04:38;100491.06;;;11.69;72.10
41254;BME280;26987;59.928;30.306;2023-04-27T07:07:06;100491.72;;;11.39;73.88
41254;BME280;26987;59.928;30.306;2023-04-27T07:09:36;100492.66;;;11.26;75.24
41254;BME280;26987;59.928;30.306;2023-04-27T07:12:03;100505.00;;;11.02;75.98
41254;BME280;26987;59.928;30.306;2023-04-27T07:14:32;100499.47;;;10.90;76.38
41254;BME280;26987;59.928;30.306;2023-04-27T07:17:00;100512.09;;;10.82;76.61
41254;BME280;26987;59.928;30.306;2023-04-27T07:19:27;100518.47;;;10.88;77.00
41254;BME280;26987;59.928;30.306;2023-04-27T07:21:55;100527.84;;;11.11;75.94
41254;BME280;26987;59.928;30.306;2023-04-27T07:24:23;100525.41;;;11.35;74.91
41254;BME280;26987;59.928;30.306;2023-04-27T07:26:52;100534.16;;;12.07;72.26
41254;BME280;26987;59.928;30.306;2023-04-27T07:29:22;100527.84;;;12.57;69.40
41254;BME280;26987;59.928;30.306;2023-04-27T07:31:53;100532.19;;;12.89;67.86
41254;BME280;26987;59.928;30.306;2023-04-27T07:34:21;100507.81;;;13.03;66.74
41254;BME280;26987;59.928;30.306;2023-04-27T07:36:50;100528.94;;;13.30;66.43
41254;BME280;26987;59.928;30.306;2023-04-27T07:39:20;100504.63;;;13.48;65.16
41254;BME280;26987;59.928;30.306;2023-04-27T07:41:48;100519.06;;;13.90;63.82
41254;BME280;26987;59.928;30.306;2023-04-27T07:44:18;100520.84;;;13.96;63.55
41254;BME280;26987;59.928;30.306;2023-04-27T07:46:46;100529.84;;;13.90;63.18
41254;BME280;26987;59.928;30.306;2023-04-27T07:49:14;100505.81;;;13.53;64.33
41254;BME280;26987;59.928;30.306;2023-04-27T07:51:42;100517.22;;;13.36;65.04
41254;BME280;26987;59.928;30.306;2023-04-27T07:54:10;100532.00;;;13.45;65.38
41254;BME280;26987;59.928;30.306;2023-04-27T07:56:40;100515.50;;;13.30;65.59
41254;BME280;26987;59.928;30.306;2023-04-27T07:59:08;100522.88;;;13.04;66.08
41254;BME280;26987;59.928;30.306;2023-04-27T08:01:37;100521.50;;;13.01;66.83
41254;BME280;26987;59.928;30.306;2023-04-27T08:04:05;100514.50;;;12.81;66.56
41254;BME280;26987;59.928;30.306;2023-04-27T08:06:33;100543.41;;;12.86;67.10
41254;BME280;26987;59.928;30.306;2023-04-27T08:09:01;100539.22;;;12.71;67.70
41254;BME280;26987;59.928;30.306;2023-04-27T08:11:29;100553.59;;;12.46;68.57
41254;BME280;26987;59.928;30.306;2023-04-27T08:13:57;100549.34;;;12.20;69.39
41254;BME280;26987;59.928;30.306;2023-04-27T08:16:25;100542.63;;;12.04;70.37
41254;BME280;26987;59.928;30.306;2023-04-27T08:18:54;100559.31;;;11.87;71.72
41254;BME280;26987;59.928;30.306;2023-04-27T08:21:22;100558.94;;;11.58;72.56
41254;BME280;26987;59.928;30.306;2023-04-27T08:23:50;100535.97;;;11.30;74.01
41254;BME280;26987;59.928;30.306;2023-04-27T08:26:18;100512.09;;;11.21;75.24
41254;BME280;26987;59.928;30.306;2023-04-27T08:28:46;100528.28;;;11.08;76.48
41254;BME280;26987;59.928;30.306;2023-04-27T08:31:14;100539.66;;;10.96;77.52
41254;BME280;26987;59.928;30.306;2023-04-27T08:33:42;100561.31;;;11.02;78.01
41254;BME280;26987;59.928;30.306;2023-04-27T08:36:11;100564.78;;;11.09;77.32
41254;BME280;26987;59.928;30.306;2023-04-27T08:38:39;100553.75;;;11.31;76.34
41254;BME280;26987;59.928;30.306;2023-04-27T08:41:07;100536.41;;;11.59;73.72
41254;BME280;26987;59.928;30.306;2023-04-27T08:43:35;100530.25;;;12.03;71.10
41254;BME280;26987;59.928;30.306;2023-04-27T08:46:03;100560.38;;;12.49;69.74
41254;BME280;26987;59.928;30.306;2023-04-27T08:48:31;100547.69;;;12.75;67.86
41254;BME280;26987;59.928;30.306;2023-04-27T08:51:00;100551.94;;;12.83;67.02
41254;BME280;26987;59.928;30.306;2023-04-27T08:53:29;100577.44;;;13.11;66.37
41254;BME280;26987;59.928;30.306;2023-04-27T08:55:59;100563.34;;;12.97;65.78
41254;BME280;26987;59.928;30.306;2023-04-27T08:58:37;100554.59;;;13.02;66.21
41254;BME280;26987;59.928;30.306;2023-04-27T09:01:05;100568.38;;;12.93;65.52
41254;BME280;26987;59.928;30.306;2023-04-27T09:03:34;100573.13;;;13.10;65.07
41254;BME280;26987;59.928;30.306;2023-04-27T09:06:02;100567.47;;;12.99;64.72
41254;BME280;26987;59.928;30.306;2023-04-27T09:08:42;100558.19;;;12.95;65.43
41254;BME280;26987;59.928;30.306;2023-04-27T09:11:10;100589.59;;;12.83;65.34
41254;BME280;26987;59.928;30.306;2023-04-27T09:13:39;100555.38;;;12.71;65.51
41254;BME280;26987;59.928;30.306;2023-04-27T09:16:07;100577.78;;;12.84;65.05
41254;BME280;26987;59.928;30.306;2023-04-27T09:18:36;100580.34;;;12.60;66.25
41254;BME280;26987;59.928;30.306;2023-04-27T09:21:04;100582.75;;;12.49;66.41
41254;BME280;26987;59.928;30.306;2023-04-27T09:23:33;100579.13;;;12.18;67.44
41254;BME280;26987;59.928;30.306;2023-04-27T09:26:04;100577.22;;;11.93;68.81
41254;BME280;26987;59.928;30.306;2023-04-27T09:28:36;100573.59;;;11.55;70.08
41254;BME280;26987;59.928;30.306;2023-04-27T09:31:04;100566.19;;;11.18;71.20
41254;BME280;26987;59.928;30.306;2023-04-27T09:33:34;100576.56;;;11.08;72.36
41254;BME280;26987;59.928;30.306;2023-04-27T09:36:04;100560.41;;;11.21;72.36
41254;BME280;26987;59.928;30.306;2023-04-27T09:38:32;100579.44;;;11.45;71.19
41254;BME280;26987;59.928;30.306;2023-04-27T09:41:00;100570.88;;;11.30;70.80
41254;BME280;26987;59.928;30.306;2023-04-27T09:43:30;100577.41;;;11.02;72.28
41254;BME280;26987;59.928;30.306;2023-04-27T09:45:58;100570.75;;;10.72;73.33
41254;BME280;26987;59.928;30.306;2023-04-27T09:48:26;100599.44;;;10.58;74.08
41254;BME280;26987;59.928;30.306;2023-04-27T09:50:54;100616.56;;;10.50;74.40
41254;BME280;26987;59.928;30.306;2023-04-27T09:53:25;100593.69;;;10.34;74.58
41254;BME280;26987;59.928;30.306;2023-04-27T09:56:07;100604.59;;;10.53;74.57
41254;BME280;26987;59.928;30.306;2023-04-27T09:58:52;100612.00;;;10.64;74.49
41254;BME280;26987;59.928;30.306;2023-04-27T10:01:29;100599.47;;;10.51;73.26
41254;BME280;26987;59.928;30.306;2023-04-27T10:04:15;100575.56;;;10.50;73.35
41254;BME280;26987;59.928;30.306;2023-04-27T10:06:59;100601.00;;;10.86;72.22
41254;BME280;26987;59.928;30.306;2023-04-27T10:09:35;100611.97;;;11.23;70.44
41254;BME280;26987;59.928;30.306;2023-04-27T10:12:15;100618.63;;;11.85;68.31
41254;BME280;26987;59.928;30.306;2023-04-27T10:14:53;100632.91;;;12.11;66.97
41254;BME280;26987;59.928;30.306;2023-04-27T10:17:27;100636.34;;;12.26;65.13
41254;BME280;26987;59.928;30.306;2023-04-27T10:19:58;100639.03;;;12.26;64.14
41254;BME280;26987;59.928;30.306;2023-04-27T10:22:39;100626.91;;;12.35;64.56
41254;BME280;26987;59.928;30.306;2023-04-27T10:25:16;100632.16;;;12.30;64.24
41254;BME280;26987;59.928;30.306;2023-04-27T10:27:48;100640.03;;;12.24;64.04
41254;BME280;26987;59.928;30.306;2023-04-27T10:30:19;100638.25;;;12.18;64.20
41254;BME280;26987;59.928;30.306;2023-04-27T10:32:52;100634.19;;;12.09;65.09
41254;BME280;26987;59.928;30.306;2023-04-27T10:35:21;100641.81;;;11.80;65.63
41254;BME280;26987;59.928;30.306;2023-04-27T10:37:49;100634.19;;;11.44;66.94
41254;BME280;26987;59.928;30.306;2023-04-27T10:40:18;100634.06;;;11.26;67.34
41254;BME280;26987;59.928;30.306;2023-04-27T10:42:46;100633.13;;;11.06;69.33
41254;BME280;26987;59.928;30.306;2023-04-27T10:45:26;100541.94;;;10.54;71.13
41254;BME280;26987;59.928;30.306;2023-04-27T10:47:57;100629.66;;;10.92;72.16
41254;BME280;26987;59.928;30.306;2023-04-27T10:50:26;100627.44;;;10.76;71.95
41254;BME280;26987;59.928;30.306;2023-04-27T10:52:58;100630.78;;;10.64;72.09
41254;BME280;26987;59.928;30.306;2023-04-27T10:55:28;100617.81;;;10.47;71.03
41254;BME280;26987;59.928;30.306;2023-04-27T10:57:56;100628.72;;;10.53;70.50
41254;BME280;26987;59.928;30.306;2023-04-27T11:00:28;100604.81;;;10.58;69.93
41254;BME280;26987;59.928;30.306;2023-04-27T11:02:57;100636.25;;;10.96;68.64
41254;BME280;26987;59.928;30.306;2023-04-27T11:05:26;100635.34;;;11.23;67.57
41254;BME280;26987;59.928;30.306;2023-04-27T11:08:04;100652.34;;;11.49;66.32
41254;BME280;26987;59.928;30.306;2023-04-27T11:10:32;100660.59;;;11.86;64.54
41254;BME280;26987;59.928;30.306;2023-04-27T11:13:06;100670.19;;;11.69;65.01
41254;BME280;26987;59.928;30.306;2023-04-27T11:15:47;100664.88;;;11.62;65.42
41254;BME280;26987;59.928;30.306;2023-04-27T11:18:16;100665.47;;;11.64;65.17
41254;BME280;26987;59.928;30.306;2023-04-27T11:20:46;100665.28;;;11.59;64.87
41254;BME280;26987;59.928;30.306;2023-04-27T11:23:25;100679.91;;;11.70;65.16
41254;BME280;26987;59.928;30.306;2023-04-27T11:25:54;100675.47;;;11.50;65.29
41254;BME280;26987;59.928;30.306;2023-04-27T11:28:22;100676.25;;;11.51;64.96
41254;BME280;26987;59.928;30.306;2023-04-27T11:30:56;100686.41;;;11.48;65.15
41254;BME280;26987;59.928;30.306;2023-04-27T11:33:24;100694.38;;;11.16;65.96
41254;BME280;26987;59.928;30.306;2023-04-27T11:35:53;100686.00;;;10.92;67.22
41254;BME280;26987;59.928;30.306;2023-04-27T11:38:21;100683.34;;;10.79;67.16
41254;BME280;26987;59.928;30.306;2023-04-27T11:40:58;100693.44;;;10.90;67.28
41254;BME280;26987;59.928;30.306;2023-04-27T11:43:27;100669.34;;;10.77;67.46
41254;BME280;26987;59.928;30.306;2023-04-27T11:45:57;100692.22;;;10.72;67.82
41254;BME280;26987;59.928;30.306;2023-04-27T11:48:26;100698.00;;;10.56;68.97
41254;BME280;26987;59.928;30.306;2023-04-27T11:50:56;100703.34;;;10.42;69.69
41254;BME280;26987;59.928;30.306;2023-04-27T11:53:29;100709.97;;;10.33;70.09
41254;BME280;26987;59.928;30.306;2023-04-27T11:55:59;100716.75;;;10.15;70.80
41254;BME280;26987;59.928;30.306;2023-04-27T11:58:27;100704.34;;;9.87;71.79
41254;BME280;26987;59.928;30.306;2023-04-27T12:00:57;100714.63;;;9.77;72.53
41254;BME280;26987;59.928;30.306;2023-04-27T12:03:26;100705.47;;;9.51;73.67
41254;BME280;26987;59.928;30.306;2023-04-27T12:05:55;100711.81;;;9.43;74.75
41254;BME280;26987;59.928;30.306;2023-04-27T12:08:23;100718.59;;;9.32;75.20
41254;BME280;26987;59.928;30.306;2023-04-27T12:10:52;100685.25;;;8.92;75.62
41254;BME280;26987;59.928;30.306;2023-04-27T12:13:19;100728.22;;;8.91;76.17
41254;BME280;26987;59.928;30.306;2023-04-27T12:15:47;100727.13;;;8.78;76.96
41254;BME280;26987;59.928;30.306;2023-04-27T12:18:17;100724.59;;;8.70;76.93
41254;BME280;26987;59.928;30.306;2023-04-27T12:20:45;100747.16;;;8.61;76.73
41254;BME280;26987;59.928;30.306;2023-04-27T12:23:12;100721.72;;;8.50;76.96
41254;BME280;26987;59.928;30.306;2023-04-27T12:25:40;100748.84;;;8.46;77.43
41254;BME280;26987;59.928;30.306;2023-04-27T12:28:09;100745.75;;;8.43;77.41
41254;BME280;26987;59.928;30.306;2023-04-27T12:30:37;100743.66;;;8.38;77.78
41254;BME280;26987;59.928;30.306;2023-04-27T12:33:05;100750.41;;;8.34;77.81
41254;BME280;26987;59.928;30.306;2023-04-27T12:35:37;100757.94;;;8.30;78.00
41254;BME280;26987;59.928;30.306;2023-04-27T12:38:05;100757.94;;;8.30;77.87
41254;BME280;26987;59.928;30.306;2023-04-27T12:40:33;100780.72;;;8.26;78.16
41254;BME280;26987;59.928;30.306;2023-04-27T12:43:01;100780.41;;;8.14;78.67
41254;BME280;26987;59.928;30.306;2023-04-27T12:45:29;100788.16;;;8.09;78.68
41254;BME280;26987;59.928;30.306;2023-04-27T12:47:57;100794.38;;;7.94;78.57
41254;BME280;26987;59.928;30.306;2023-04-27T12:50:25;100785.72;;;7.77;79.59
41254;BME280;26987;59.928;30.306;2023-04-27T12:52:54;100793.03;;;7.68;80.28